EWG237 EDLW-LPMA
Flight info
| Callsign | EWG237 |
|---|---|
| Flight time | N/A |
| Altitude | 24000 |
| Route | BAMSU2U BAMSU M170 NVO Y868 MAPAD/N0444F340 Y868 SOGRI UM617 CIV/N0443F330 N872 MEDIL DCT ATLEN/N0449F350 DCT ABUPI DCT BELDU DCT MANIK DCT NASAS DCT RAKUN DCT SNT DCT FUN DCT MD211 DCT GELO |
| Aircraft | A320/M-SDE3FGHIRWY/LB1 |
Departure
| Time | 2026-05-04 10:19 |
|---|---|
| Airport | Dortmund Airport (EDLW) |
Arrival
| Time | N/A |
|---|---|
| Airport | Cristiano Ronaldo International Airport (LPMA) |
| Time | Latitude | Longitude | Altitude | Speed | Heading |
|---|---|---|---|---|---|
| 2026-05-04 09:55 | 51.51585 | 7.61284 | 434 ft | 0 kts | 332° |
| 2026-05-04 10:16 | 51.51720 | 7.61449 | 424 ft | 17 kts | 61° |
| 2026-05-04 10:16 | 51.51787 | 7.61639 | 418 ft | 24 kts | 59° |
| 2026-05-04 10:16 | 51.51881 | 7.61908 | 414 ft | 31 kts | 61° |
| 2026-05-04 10:16 | 51.51995 | 7.62227 | 408 ft | 34 kts | 60° |
| 2026-05-04 10:17 | 51.52117 | 7.62577 | 411 ft | 37 kts | 61° |
| 2026-05-04 10:17 | 51.52236 | 7.62780 | 410 ft | 22 kts | 351° |
| 2026-05-04 10:19 | 51.49821 | 7.55462 | 1984 ft | 181 kts | 239° |
| 2026-05-04 10:19 | 51.49162 | 7.53633 | 2346 ft | 204 kts | 239° |
| 2026-05-04 10:19 | 51.48400 | 7.51504 | 2745 ft | 230 kts | 239° |
| 2026-05-04 10:19 | 51.47548 | 7.49191 | 3140 ft | 249 kts | 235° |
| 2026-05-04 10:20 | 51.46557 | 7.46910 | 3795 ft | 255 kts | 233° |
| 2026-05-04 10:20 | 51.45497 | 7.44631 | 4582 ft | 256 kts | 232° |
| 2026-05-04 10:20 | 51.44406 | 7.42340 | 5308 ft | 260 kts | 232° |
| 2026-05-04 10:20 | 51.43283 | 7.39987 | 6035 ft | 263 kts | 232° |
| 2026-05-04 10:21 | 51.42180 | 7.37664 | 6700 ft | 268 kts | 233° |
| 2026-05-04 10:21 | 51.41044 | 7.35274 | 7398 ft | 270 kts | 231° |
| 2026-05-04 10:21 | 51.39673 | 7.33221 | 8110 ft | 272 kts | 214° |
| 2026-05-04 10:21 | 51.37961 | 7.31905 | 8813 ft | 276 kts | 197° |
| 2026-05-04 10:22 | 51.34081 | 7.31423 | 10135 ft | 286 kts | 184° |
| 2026-05-04 10:22 | 51.32011 | 7.31356 | 10274 ft | 308 kts | 184° |
| 2026-05-04 10:22 | 51.29831 | 7.31278 | 10688 ft | 317 kts | 184° |
| 2026-05-04 10:23 | 51.27612 | 7.31198 | 11316 ft | 320 kts | 184° |
| 2026-05-04 10:23 | 51.25378 | 7.31118 | 11975 ft | 322 kts | 184° |
| 2026-05-04 10:25 | 51.12964 | 7.18217 | 15931 ft | 332 kts | 232° |
| 2026-05-04 10:25 | 51.11576 | 7.15247 | 16456 ft | 335 kts | 232° |
| 2026-05-04 10:25 | 51.10198 | 7.12305 | 16944 ft | 337 kts | 232° |
| 2026-05-04 10:25 | 51.08770 | 7.09263 | 17450 ft | 341 kts | 232° |
| 2026-05-04 10:26 | 51.07361 | 7.06271 | 17950 ft | 344 kts | 232° |
| 2026-05-04 10:26 | 51.05922 | 7.03216 | 18431 ft | 346 kts | 232° |
| 2026-05-04 10:26 | 51.04477 | 7.00146 | 18884 ft | 348 kts | 232° |
| 2026-05-04 10:26 | 51.03025 | 6.97063 | 19342 ft | 349 kts | 232° |
| 2026-05-04 10:27 | 51.01565 | 6.93969 | 19800 ft | 350 kts | 232° |
| 2026-05-04 10:27 | 51.00100 | 6.90873 | 20258 ft | 351 kts | 232° |
| 2026-05-04 10:27 | 50.98627 | 6.87767 | 20713 ft | 353 kts | 232° |
| 2026-05-04 10:27 | 50.97139 | 6.84660 | 21148 ft | 354 kts | 229° |
| 2026-05-04 10:28 | 50.95412 | 6.81885 | 21577 ft | 354 kts | 221° |
| 2026-05-04 10:28 | 50.93552 | 6.79309 | 22004 ft | 356 kts | 221° |
| 2026-05-04 10:28 | 50.92317 | 6.77596 | 22288 ft | 357 kts | 221° |
| 2026-05-04 10:28 | 50.90448 | 6.75005 | 22694 ft | 358 kts | 221° |
| 2026-05-04 10:29 | 50.88567 | 6.72398 | 23104 ft | 359 kts | 221° |
| 2026-05-04 10:29 | 50.86688 | 6.69791 | 23507 ft | 361 kts | 221° |
| 2026-05-04 10:29 | 50.84904 | 6.66994 | 23859 ft | 362 kts | 231° |
| 2026-05-04 10:29 | 50.83534 | 6.63639 | 24189 ft | 365 kts | 242° |
| 2026-05-04 10:30 | 50.82669 | 6.59849 | 24504 ft | 370 kts | 255° |
| 2026-05-04 10:30 | 50.82367 | 6.55789 | 24824 ft | 376 kts | 266° |
| 2026-05-04 10:30 | 50.82417 | 6.51632 | 25114 ft | 379 kts | 267° |
| 2026-05-04 10:30 | 50.82474 | 6.47449 | 25429 ft | 380 kts | 267° |
| 2026-05-04 10:31 | 50.82527 | 6.43271 | 25753 ft | 381 kts | 267° |
| 2026-05-04 10:31 | 50.82580 | 6.39076 | 26081 ft | 382 kts | 267° |
| 2026-05-04 10:32 | 50.82847 | 6.13746 | 27954 ft | 386 kts | 266° |
| 2026-05-04 10:33 | 50.82882 | 6.09499 | 28276 ft | 387 kts | 266° |
| 2026-05-04 10:33 | 50.82919 | 6.05237 | 28544 ft | 388 kts | 266° |
| 2026-05-04 10:33 | 50.82951 | 6.00956 | 28808 ft | 389 kts | 265° |
| 2026-05-04 10:33 | 50.82924 | 5.96674 | 29094 ft | 389 kts | 264° |
| 2026-05-04 10:34 | 50.82841 | 5.92393 | 29376 ft | 390 kts | 263° |
| 2026-05-04 10:34 | 50.82730 | 5.88098 | 29669 ft | 391 kts | 263° |
| 2026-05-04 10:34 | 50.82609 | 5.83793 | 29946 ft | 392 kts | 263° |
| 2026-05-04 10:34 | 50.82493 | 5.79488 | 30186 ft | 393 kts | 263° |
| 2026-05-04 10:35 | 50.82384 | 5.75157 | 30400 ft | 394 kts | 263° |
| 2026-05-04 10:35 | 50.82280 | 5.70817 | 30612 ft | 395 kts | 264° |
| 2026-05-04 10:35 | 50.82182 | 5.66522 | 30807 ft | 397 kts | 264° |
| 2026-05-04 10:35 | 50.82085 | 5.62155 | 31036 ft | 398 kts | 263° |
| 2026-05-04 10:36 | 50.81987 | 5.57773 | 31225 ft | 399 kts | 263° |
| 2026-05-04 10:36 | 50.81886 | 5.53380 | 31419 ft | 401 kts | 263° |
| 2026-05-04 10:36 | 50.81783 | 5.48974 | 31606 ft | 402 kts | 263° |
| 2026-05-04 10:36 | 50.81677 | 5.44558 | 31842 ft | 402 kts | 263° |
| 2026-05-04 10:37 | 50.81571 | 5.40149 | 32127 ft | 400 kts | 263° |
| 2026-05-04 10:37 | 50.81463 | 5.35752 | 32398 ft | 399 kts | 263° |
| 2026-05-04 10:37 | 50.81353 | 5.31373 | 32677 ft | 398 kts | 263° |
| 2026-05-04 10:37 | 50.81242 | 5.26998 | 32910 ft | 398 kts | 263° |
| 2026-05-04 10:39 | 50.80051 | 5.01289 | 34007 ft | 370 kts | 250° |
| 2026-05-04 10:39 | 50.79321 | 4.97413 | 34008 ft | 366 kts | 250° |
| 2026-05-04 10:40 | 50.77882 | 4.89714 | 34008 ft | 365 kts | 250° |
| 2026-05-04 10:40 | 50.76451 | 4.82044 | 34010 ft | 363 kts | 250° |
| 2026-05-04 10:41 | 50.75014 | 4.74398 | 34010 ft | 363 kts | 250° |
| 2026-05-04 10:41 | 50.73568 | 4.66761 | 34031 ft | 363 kts | 249° |
| 2026-05-04 10:42 | 50.72121 | 4.59130 | 34026 ft | 363 kts | 249° |
| 2026-05-04 10:42 | 50.70669 | 4.51489 | 34021 ft | 363 kts | 249° |
| 2026-05-04 10:43 | 50.69217 | 4.43902 | 34019 ft | 363 kts | 249° |
| 2026-05-04 10:45 | 50.63318 | 4.13429 | 34009 ft | 363 kts | 249° |
| 2026-05-04 10:45 | 50.62576 | 4.09629 | 34218 ft | 362 kts | 249° |
| 2026-05-04 10:45 | 50.61838 | 4.05844 | 34456 ft | 360 kts | 249° |
| 2026-05-04 10:45 | 50.61104 | 4.02088 | 34691 ft | 358 kts | 249° |
| 2026-05-04 10:46 | 50.60371 | 3.98347 | 34908 ft | 357 kts | 249° |
| 2026-05-04 10:46 | 50.58869 | 3.90838 | 35005 ft | 362 kts | 245° |
| 2026-05-04 10:46 | 50.57753 | 3.87286 | 35002 ft | 362 kts | 234° |
| 2026-05-04 10:47 | 50.56222 | 3.84206 | 35004 ft | 364 kts | 224° |
| 2026-05-04 10:47 | 50.52063 | 3.79636 | 35003 ft | 370 kts | 205° |
| 2026-05-04 10:49 | 50.33415 | 3.65849 | 34998 ft | 371 kts | 221° |
| 2026-05-04 10:50 | 50.29888 | 3.59901 | 34991 ft | 373 kts | 226° |
| 2026-05-04 10:52 | 50.16008 | 3.35761 | 34989 ft | 374 kts | 226° |
| 2026-05-04 10:52 | 50.12542 | 3.29776 | 34991 ft | 375 kts | 226° |
| 2026-05-04 10:54 | 49.98556 | 3.05674 | 34967 ft | 375 kts | 225° |
| 2026-05-04 10:56 | 49.84453 | 2.81645 | 34971 ft | 377 kts | 225° |
| 2026-05-04 10:57 | 49.80916 | 2.75653 | 34970 ft | 377 kts | 225° |
| 2026-05-04 10:57 | 49.77370 | 2.69662 | 34987 ft | 377 kts | 225° |
| 2026-05-04 10:58 | 49.73821 | 2.63676 | 34977 ft | 378 kts | 225° |
| 2026-05-04 10:58 | 49.70283 | 2.57718 | 34970 ft | 378 kts | 225° |
| 2026-05-04 10:59 | 49.66719 | 2.51733 | 34968 ft | 379 kts | 224° |
| 2026-05-04 10:59 | 49.63147 | 2.45751 | 34973 ft | 379 kts | 224° |
| 2026-05-04 11:00 | 49.59571 | 2.39775 | 34973 ft | 379 kts | 224° |
| 2026-05-04 11:02 | 49.45230 | 2.15947 | 34983 ft | 380 kts | 224° |
| 2026-05-04 11:05 | 49.18060 | 1.71389 | 34988 ft | 383 kts | 224° |
| 2026-05-04 11:06 | 49.14405 | 1.65469 | 34978 ft | 383 kts | 224° |
| 2026-05-04 11:06 | 49.10737 | 1.59541 | 34978 ft | 384 kts | 224° |
| 2026-05-04 11:10 | 48.84791 | 1.17890 | 34954 ft | 392 kts | 224° |
| 2026-05-04 11:12 | 48.69673 | 0.93932 | 34962 ft | 394 kts | 223° |
| 2026-05-04 11:12 | 48.65877 | 0.87954 | 34963 ft | 394 kts | 223° |
| 2026-05-04 11:13 | 48.62078 | 0.81981 | 34962 ft | 394 kts | 224° |
| 2026-05-04 11:13 | 48.58264 | 0.76007 | 34957 ft | 395 kts | 224° |
| 2026-05-04 11:14 | 48.54448 | 0.70034 | 34960 ft | 395 kts | 224° |
| 2026-05-04 11:16 | 48.39174 | 0.46262 | 34942 ft | 395 kts | 224° |
| 2026-05-04 11:16 | 48.35341 | 0.40332 | 34966 ft | 395 kts | 224° |
| 2026-05-04 11:17 | 48.31505 | 0.34415 | 34967 ft | 395 kts | 224° |
| 2026-05-04 11:19 | 48.16818 | 0.11888 | 34968 ft | 394 kts | 223° |
| 2026-05-04 11:19 | 48.12980 | 0.06044 | 34967 ft | 394 kts | 223° |
| 2026-05-04 11:20 | 48.09145 | 0.00204 | 34975 ft | 394 kts | 223° |
| 2026-05-04 11:20 | 48.05305 | -0.05643 | 34969 ft | 394 kts | 223° |
| 2026-05-04 11:22 | 47.89863 | -0.28963 | 34965 ft | 395 kts | 223° |
| 2026-05-04 11:23 | 47.85996 | -0.34772 | 34964 ft | 395 kts | 223° |
| 2026-05-04 11:25 | 47.72458 | -0.54998 | 34974 ft | 394 kts | 223° |
| 2026-05-04 11:25 | 47.68585 | -0.60757 | 34981 ft | 394 kts | 223° |
| 2026-05-04 11:27 | 47.51126 | -0.86576 | 35003 ft | 393 kts | 223° |
| 2026-05-04 11:28 | 47.47256 | -0.92265 | 34997 ft | 392 kts | 223° |
| 2026-05-04 11:28 | 47.43416 | -0.97896 | 34988 ft | 391 kts | 223° |
| 2026-05-04 11:29 | 47.39545 | -1.03558 | 34986 ft | 391 kts | 223° |
| 2026-05-04 11:29 | 47.35684 | -1.09197 | 34982 ft | 391 kts | 223° |
| 2026-05-04 11:33 | 47.08564 | -1.48418 | 34977 ft | 392 kts | 222° |
| 2026-05-04 11:33 | 47.04672 | -1.54001 | 34975 ft | 391 kts | 222° |
| 2026-05-04 11:34 | 47.00775 | -1.59582 | 34978 ft | 392 kts | 222° |
| 2026-05-04 11:34 | 46.96877 | -1.65159 | 34998 ft | 392 kts | 222° |
| 2026-05-04 11:35 | 46.92962 | -1.70740 | 34975 ft | 393 kts | 222° |
| 2026-05-04 11:35 | 46.89065 | -1.76281 | 34965 ft | 393 kts | 222° |
| 2026-05-04 11:36 | 46.85135 | -1.81848 | 34965 ft | 394 kts | 222° |
| 2026-05-04 11:36 | 46.81194 | -1.87425 | 34971 ft | 394 kts | 222° |
| 2026-05-04 11:37 | 46.77245 | -1.92998 | 34969 ft | 395 kts | 222° |
| 2026-05-04 11:37 | 46.73301 | -1.98568 | 34976 ft | 395 kts | 222° |
| 2026-05-04 11:38 | 46.69345 | -2.04121 | 35001 ft | 395 kts | 222° |
| 2026-05-04 11:38 | 46.65383 | -2.09677 | 34989 ft | 395 kts | 222° |
| 2026-05-04 11:39 | 46.61424 | -2.15225 | 34991 ft | 396 kts | 222° |
| 2026-05-04 11:41 | 46.47561 | -2.34566 | 34993 ft | 395 kts | 222° |
| 2026-05-04 11:41 | 46.43591 | -2.40069 | 34994 ft | 395 kts | 222° |
| 2026-05-04 11:42 | 46.39617 | -2.45572 | 35004 ft | 395 kts | 222° |
| 2026-05-04 11:42 | 46.35641 | -2.51079 | 34997 ft | 396 kts | 222° |
| 2026-05-04 11:43 | 46.31653 | -2.56580 | 34993 ft | 396 kts | 222° |
| 2026-05-04 11:43 | 46.27657 | -2.62080 | 34992 ft | 396 kts | 221° |
| 2026-05-04 11:44 | 46.23681 | -2.67520 | 34992 ft | 396 kts | 221° |
| 2026-05-04 11:44 | 46.19675 | -2.73002 | 34997 ft | 397 kts | 221° |
| 2026-05-04 11:45 | 46.15669 | -2.78484 | 34999 ft | 397 kts | 221° |
| 2026-05-04 11:45 | 46.11654 | -2.83959 | 34987 ft | 398 kts | 222° |
| 2026-05-04 11:46 | 46.07615 | -2.89445 | 34982 ft | 399 kts | 222° |
| 2026-05-04 11:46 | 46.03571 | -2.94945 | 34983 ft | 400 kts | 222° |
| 2026-05-04 11:47 | 45.99516 | -3.00441 | 34985 ft | 401 kts | 222° |
| 2026-05-04 11:47 | 45.95451 | -3.05932 | 34990 ft | 401 kts | 222° |
| 2026-05-04 11:48 | 45.91384 | -3.11436 | 34994 ft | 402 kts | 222° |
| 2026-05-04 11:48 | 45.87313 | -3.16930 | 35015 ft | 401 kts | 223° |
| 2026-05-04 11:49 | 45.83267 | -3.22374 | 35014 ft | 401 kts | 223° |
| 2026-05-04 11:49 | 45.79188 | -3.27838 | 35013 ft | 401 kts | 222° |
| 2026-05-04 11:50 | 45.75102 | -3.33292 | 35013 ft | 401 kts | 222° |
| 2026-05-04 11:50 | 45.71023 | -3.38751 | 35018 ft | 401 kts | 223° |
| 2026-05-04 11:51 | 45.66947 | -3.44192 | 35023 ft | 400 kts | 222° |
| 2026-05-04 11:51 | 45.62874 | -3.49607 | 35028 ft | 399 kts | 222° |
| 2026-05-04 11:52 | 45.58803 | -3.55007 | 35037 ft | 399 kts | 222° |
| 2026-05-04 11:52 | 45.54727 | -3.60391 | 35031 ft | 399 kts | 222° |
| 2026-05-04 11:53 | 45.50661 | -3.65763 | 35024 ft | 398 kts | 222° |
| 2026-05-04 11:53 | 45.46593 | -3.71123 | 35025 ft | 398 kts | 222° |
| 2026-05-04 11:55 | 45.30324 | -3.92494 | 35013 ft | 398 kts | 222° |
| 2026-05-04 11:56 | 45.26279 | -3.97779 | 35013 ft | 398 kts | 222° |
| 2026-05-04 11:56 | 45.22196 | -4.03097 | 35011 ft | 398 kts | 222° |
| 2026-05-04 11:57 | 45.18110 | -4.08415 | 35014 ft | 398 kts | 222° |
| 2026-05-04 11:57 | 45.14022 | -4.13713 | 35015 ft | 398 kts | 222° |
| 2026-05-04 11:58 | 45.09926 | -4.19010 | 35011 ft | 398 kts | 222° |
| 2026-05-04 11:58 | 45.05837 | -4.24295 | 35021 ft | 398 kts | 222° |
| 2026-05-04 11:59 | 45.01740 | -4.29572 | 35026 ft | 398 kts | 222° |
| 2026-05-04 11:59 | 44.97649 | -4.34844 | 35028 ft | 398 kts | 222° |
| 2026-05-04 12:00 | 44.93555 | -4.40114 | 35029 ft | 398 kts | 222° |
| 2026-05-04 12:00 | 44.89459 | -4.45363 | 35028 ft | 398 kts | 222° |
| 2026-05-04 12:01 | 44.85362 | -4.50608 | 35032 ft | 397 kts | 222° |
| 2026-05-04 12:02 | 44.71025 | -4.68855 | 35028 ft | 397 kts | 222° |
| 2026-05-04 12:03 | 44.66924 | -4.74066 | 35028 ft | 397 kts | 221° |
| 2026-05-04 12:03 | 44.62819 | -4.79255 | 35029 ft | 397 kts | 221° |
| 2026-05-04 12:04 | 44.58734 | -4.84410 | 35034 ft | 397 kts | 221° |
| 2026-05-04 12:04 | 44.54625 | -4.89599 | 35034 ft | 397 kts | 221° |
| 2026-05-04 12:05 | 44.50476 | -4.94708 | 35026 ft | 397 kts | 216° |
| 2026-05-04 12:05 | 44.45825 | -4.98873 | 35033 ft | 397 kts | 212° |
| 2026-05-04 12:06 | 44.41141 | -5.02957 | 35032 ft | 397 kts | 212° |
| 2026-05-04 12:06 | 44.36458 | -5.07049 | 35025 ft | 397 kts | 212° |
| 2026-05-04 12:07 | 44.31778 | -5.11121 | 35028 ft | 396 kts | 212° |
| 2026-05-04 12:07 | 44.27886 | -5.14505 | 35021 ft | 397 kts | 212° |
| 2026-05-04 12:08 | 44.23205 | -5.18576 | 35027 ft | 397 kts | 212° |
| 2026-05-04 12:08 | 44.18516 | -5.22633 | 35030 ft | 396 kts | 212° |
| 2026-05-04 12:09 | 44.13827 | -5.26679 | 35026 ft | 396 kts | 212° |
| 2026-05-04 12:09 | 44.09150 | -5.30718 | 35027 ft | 396 kts | 213° |
| 2026-05-04 12:10 | 44.04464 | -5.34762 | 35038 ft | 396 kts | 213° |
| 2026-05-04 12:10 | 43.99776 | -5.38804 | 35036 ft | 397 kts | 213° |
| 2026-05-04 12:11 | 43.95076 | -5.42841 | 35036 ft | 397 kts | 213° |
| 2026-05-04 12:11 | 43.90405 | -5.46845 | 35033 ft | 397 kts | 213° |
| 2026-05-04 12:12 | 43.85695 | -5.50871 | 35022 ft | 397 kts | 213° |
| 2026-05-04 12:12 | 43.80986 | -5.54884 | 35027 ft | 397 kts | 213° |
| 2026-05-04 12:14 | 43.62142 | -5.70895 | 35043 ft | 397 kts | 213° |
| 2026-05-04 12:15 | 43.57457 | -5.74852 | 35056 ft | 397 kts | 213° |
| 2026-05-04 12:15 | 43.52739 | -5.78829 | 35054 ft | 397 kts | 213° |
| 2026-05-04 12:16 | 43.48019 | -5.82802 | 35041 ft | 398 kts | 213° |
| 2026-05-04 12:16 | 43.43302 | -5.86777 | 35050 ft | 397 kts | 213° |
| 2026-05-04 12:17 | 43.38584 | -5.90740 | 35053 ft | 397 kts | 213° |
| 2026-05-04 12:17 | 43.33862 | -5.94695 | 35050 ft | 397 kts | 213° |
| 2026-05-04 12:18 | 43.29136 | -5.98636 | 35048 ft | 397 kts | 213° |
| 2026-05-04 12:18 | 43.24419 | -6.02571 | 35028 ft | 397 kts | 213° |
| 2026-05-04 12:19 | 43.19707 | -6.06502 | 35027 ft | 397 kts | 213° |
| 2026-05-04 12:19 | 43.14990 | -6.10439 | 35025 ft | 397 kts | 213° |
| 2026-05-04 12:20 | 43.10268 | -6.14355 | 35015 ft | 397 kts | 213° |
| 2026-05-04 12:20 | 43.05548 | -6.18256 | 34998 ft | 396 kts | 214° |
| 2026-05-04 12:21 | 43.00856 | -6.22133 | 35001 ft | 396 kts | 214° |
| 2026-05-04 12:21 | 42.96139 | -6.26033 | 35004 ft | 396 kts | 214° |
| 2026-05-04 12:22 | 42.91422 | -6.29922 | 35000 ft | 396 kts | 214° |
| 2026-05-04 12:22 | 42.86707 | -6.33804 | 34999 ft | 396 kts | 214° |
| 2026-05-04 12:23 | 42.81990 | -6.37677 | 34980 ft | 395 kts | 214° |
| 2026-05-04 12:23 | 42.77282 | -6.41541 | 34994 ft | 395 kts | 214° |
| 2026-05-04 12:24 | 42.72577 | -6.45389 | 34998 ft | 395 kts | 214° |
| 2026-05-04 12:24 | 42.67867 | -6.49230 | 35004 ft | 394 kts | 214° |
| 2026-05-04 12:25 | 42.63165 | -6.53064 | 34995 ft | 394 kts | 214° |
| 2026-05-04 12:25 | 42.58460 | -6.56892 | 35000 ft | 394 kts | 214° |
| 2026-05-04 12:26 | 42.53749 | -6.60713 | 35002 ft | 394 kts | 214° |
| 2026-05-04 12:26 | 42.49043 | -6.64525 | 34998 ft | 394 kts | 214° |
| 2026-05-04 12:27 | 42.44334 | -6.68346 | 34997 ft | 394 kts | 214° |
| 2026-05-04 12:27 | 42.39661 | -6.72129 | 34990 ft | 394 kts | 215° |
| 2026-05-04 12:28 | 42.34951 | -6.75923 | 34994 ft | 394 kts | 214° |
| 2026-05-04 12:28 | 42.30237 | -6.79710 | 34997 ft | 394 kts | 214° |
| 2026-05-04 12:29 | 42.25529 | -6.83494 | 34997 ft | 394 kts | 214° |
| 2026-05-04 12:29 | 42.20821 | -6.87273 | 35003 ft | 394 kts | 214° |
| 2026-05-04 12:30 | 42.16114 | -6.91040 | 34993 ft | 394 kts | 215° |
| 2026-05-04 12:30 | 42.11403 | -6.94810 | 34998 ft | 394 kts | 215° |
| 2026-05-04 12:31 | 42.06691 | -6.98570 | 35001 ft | 394 kts | 215° |
| 2026-05-04 12:31 | 42.01983 | -7.02317 | 35004 ft | 393 kts | 215° |
| 2026-05-04 12:32 | 41.94919 | -7.07934 | 34985 ft | 393 kts | 215° |
| 2026-05-04 12:33 | 41.90249 | -7.11645 | 34996 ft | 392 kts | 215° |
| 2026-05-04 12:33 | 41.85544 | -7.15368 | 35004 ft | 392 kts | 215° |
| 2026-05-04 12:34 | 41.80845 | -7.19079 | 35005 ft | 392 kts | 215° |
| 2026-05-04 12:34 | 41.76169 | -7.22807 | 34994 ft | 389 kts | 219° |
| 2026-05-04 12:35 | 41.72223 | -7.27617 | 34988 ft | 382 kts | 230° |
| 2026-05-04 12:35 | 41.68549 | -7.32747 | 35001 ft | 382 kts | 230° |
| 2026-05-04 12:36 | 41.64855 | -7.37864 | 35016 ft | 382 kts | 230° |
| 2026-05-04 12:36 | 41.61161 | -7.42970 | 35010 ft | 382 kts | 230° |
| 2026-05-04 12:37 | 41.57480 | -7.48040 | 35017 ft | 382 kts | 230° |
| 2026-05-04 12:37 | 41.53782 | -7.53139 | 35017 ft | 382 kts | 230° |
| 2026-05-04 12:38 | 41.50082 | -7.58228 | 35005 ft | 382 kts | 230° |
| 2026-05-04 12:38 | 41.46385 | -7.63313 | 35017 ft | 381 kts | 230° |
| 2026-05-04 12:39 | 41.42692 | -7.68381 | 35027 ft | 381 kts | 230° |
| 2026-05-04 12:39 | 41.39004 | -7.73432 | 35030 ft | 380 kts | 230° |
| 2026-05-04 12:40 | 41.35312 | -7.78468 | 35033 ft | 380 kts | 230° |
| 2026-05-04 12:40 | 41.31514 | -7.83383 | 35032 ft | 381 kts | 228° |
| 2026-05-04 12:41 | 41.27652 | -7.88222 | 35020 ft | 381 kts | 228° |
| 2026-05-04 12:41 | 41.23807 | -7.93060 | 35042 ft | 380 kts | 229° |
| 2026-05-04 12:42 | 41.19982 | -7.97912 | 35050 ft | 380 kts | 229° |
| 2026-05-04 12:42 | 41.16159 | -8.02764 | 35050 ft | 380 kts | 229° |
| 2026-05-04 12:43 | 41.12341 | -8.07597 | 35065 ft | 379 kts | 229° |
| 2026-05-04 12:43 | 41.08521 | -8.12425 | 35063 ft | 379 kts | 229° |
| 2026-05-04 12:44 | 41.04696 | -8.17249 | 35036 ft | 379 kts | 229° |
| 2026-05-04 12:44 | 41.00873 | -8.22056 | 35055 ft | 379 kts | 229° |
| 2026-05-04 12:45 | 40.97079 | -8.26825 | 35065 ft | 378 kts | 229° |
| 2026-05-04 12:45 | 40.93260 | -8.31616 | 35077 ft | 378 kts | 229° |
| 2026-05-04 12:46 | 40.89439 | -8.36401 | 35081 ft | 378 kts | 229° |
| 2026-05-04 12:46 | 40.85614 | -8.41171 | 35083 ft | 378 kts | 229° |
| 2026-05-04 12:47 | 40.81791 | -8.45936 | 35073 ft | 378 kts | 229° |
| 2026-05-04 12:47 | 40.77976 | -8.50692 | 35074 ft | 377 kts | 229° |
| 2026-05-04 12:48 | 40.74153 | -8.55449 | 35075 ft | 378 kts | 229° |
| 2026-05-04 12:48 | 40.70328 | -8.60203 | 35078 ft | 378 kts | 229° |
| 2026-05-04 12:49 | 40.66384 | -8.64823 | 35087 ft | 380 kts | 225° |
| 2026-05-04 12:49 | 40.62268 | -8.69212 | 35090 ft | 381 kts | 224° |
| 2026-05-04 12:50 | 40.58127 | -8.73565 | 35082 ft | 380 kts | 224° |
| 2026-05-04 12:50 | 40.54036 | -8.77933 | 35106 ft | 382 kts | 225° |
| 2026-05-04 12:51 | 40.49928 | -8.82369 | 35109 ft | 382 kts | 225° |
| 2026-05-04 12:51 | 40.45813 | -8.86792 | 35109 ft | 383 kts | 225° |
| 2026-05-04 12:52 | 40.41687 | -8.91210 | 35111 ft | 383 kts | 225° |
| 2026-05-04 12:52 | 40.37561 | -8.95619 | 35110 ft | 382 kts | 225° |
| 2026-05-04 12:53 | 40.33437 | -9.00022 | 35108 ft | 382 kts | 225° |
| 2026-05-04 12:53 | 40.29313 | -9.04422 | 35109 ft | 382 kts | 225° |
| 2026-05-04 12:54 | 40.25180 | -9.08815 | 35110 ft | 382 kts | 225° |
| 2026-05-04 12:54 | 40.21049 | -9.13195 | 35098 ft | 383 kts | 225° |
| 2026-05-04 12:55 | 40.16933 | -9.17558 | 35104 ft | 383 kts | 225° |
| 2026-05-04 12:55 | 40.13465 | -9.21242 | 35106 ft | 384 kts | 225° |
| 2026-05-04 12:56 | 40.09320 | -9.25631 | 35076 ft | 383 kts | 225° |
| 2026-05-04 12:56 | 40.04502 | -9.30721 | 35090 ft | 383 kts | 225° |
| 2026-05-04 12:57 | 40.01029 | -9.34384 | 35100 ft | 383 kts | 225° |
| 2026-05-04 12:57 | 39.96876 | -9.38745 | 35103 ft | 383 kts | 225° |
| 2026-05-04 12:58 | 39.92722 | -9.43102 | 35110 ft | 383 kts | 225° |
| 2026-05-04 12:58 | 39.88574 | -9.47458 | 35109 ft | 383 kts | 225° |
| 2026-05-04 12:59 | 39.84425 | -9.51811 | 35084 ft | 383 kts | 225° |
| 2026-05-04 12:59 | 39.80270 | -9.56161 | 35093 ft | 384 kts | 225° |
| 2026-05-04 13:00 | 39.76105 | -9.60507 | 35103 ft | 384 kts | 225° |
| 2026-05-04 13:00 | 39.71940 | -9.64842 | 35118 ft | 384 kts | 225° |
| 2026-05-04 13:01 | 39.67801 | -9.69146 | 35126 ft | 384 kts | 225° |
| 2026-05-04 13:01 | 39.63635 | -9.73480 | 35128 ft | 383 kts | 225° |
| 2026-05-04 13:02 | 39.59471 | -9.77802 | 35103 ft | 383 kts | 225° |
| 2026-05-04 13:02 | 39.55299 | -9.82114 | 35110 ft | 383 kts | 225° |
| 2026-05-04 13:03 | 39.51132 | -9.86418 | 35107 ft | 383 kts | 225° |
| 2026-05-04 13:03 | 39.46959 | -9.90733 | 35113 ft | 384 kts | 225° |
| 2026-05-04 13:04 | 39.42781 | -9.95044 | 35117 ft | 384 kts | 225° |
| 2026-05-04 13:04 | 39.38589 | -9.99349 | 35123 ft | 384 kts | 225° |
| 2026-05-04 13:05 | 39.34406 | -10.03646 | 35108 ft | 385 kts | 225° |
| 2026-05-04 13:05 | 39.30211 | -10.07949 | 35116 ft | 385 kts | 225° |
| 2026-05-04 13:06 | 39.26020 | -10.12240 | 35118 ft | 384 kts | 225° |
| 2026-05-04 13:06 | 39.21866 | -10.16501 | 35123 ft | 384 kts | 225° |
| 2026-05-04 13:07 | 39.17675 | -10.20783 | 35119 ft | 384 kts | 225° |
| 2026-05-04 13:07 | 39.13476 | -10.25061 | 35121 ft | 385 kts | 225° |
| 2026-05-04 13:08 | 39.09271 | -10.29341 | 35124 ft | 386 kts | 225° |
| 2026-05-04 13:08 | 39.05048 | -10.33632 | 35135 ft | 386 kts | 225° |
| 2026-05-04 13:09 | 39.00826 | -10.37910 | 35139 ft | 386 kts | 225° |
| 2026-05-04 13:09 | 38.96610 | -10.42180 | 35141 ft | 386 kts | 225° |
| 2026-05-04 13:10 | 38.92391 | -10.46450 | 35141 ft | 386 kts | 225° |
| 2026-05-04 13:10 | 38.88171 | -10.50715 | 35146 ft | 386 kts | 225° |
| 2026-05-04 13:11 | 38.83946 | -10.54975 | 35123 ft | 386 kts | 225° |
| 2026-05-04 13:11 | 38.79724 | -10.59224 | 35124 ft | 386 kts | 225° |
| 2026-05-04 13:12 | 38.75529 | -10.63438 | 35127 ft | 386 kts | 225° |
| 2026-05-04 13:12 | 38.71301 | -10.67680 | 35129 ft | 386 kts | 225° |
| 2026-05-04 13:13 | 38.67072 | -10.71913 | 35134 ft | 386 kts | 225° |
| 2026-05-04 13:13 | 38.62844 | -10.76152 | 35137 ft | 386 kts | 225° |
| 2026-05-04 13:14 | 38.58614 | -10.80375 | 35127 ft | 386 kts | 225° |
| 2026-05-04 13:14 | 38.54377 | -10.84603 | 35135 ft | 386 kts | 225° |
| 2026-05-04 13:15 | 38.50142 | -10.88826 | 35146 ft | 386 kts | 225° |
| 2026-05-04 13:15 | 38.45901 | -10.93041 | 35150 ft | 386 kts | 225° |
| 2026-05-04 13:16 | 38.41658 | -10.97251 | 35144 ft | 386 kts | 225° |
| 2026-05-04 13:16 | 38.37416 | -11.01457 | 35148 ft | 386 kts | 225° |
| 2026-05-04 13:17 | 38.33173 | -11.05660 | 35133 ft | 386 kts | 225° |
| 2026-05-04 13:17 | 38.28956 | -11.09830 | 35141 ft | 386 kts | 225° |
| 2026-05-04 13:18 | 38.24709 | -11.14018 | 35142 ft | 386 kts | 225° |
| 2026-05-04 13:18 | 38.20458 | -11.18199 | 35147 ft | 386 kts | 225° |
| 2026-05-04 13:19 | 38.16213 | -11.22378 | 35151 ft | 386 kts | 225° |
| 2026-05-04 13:19 | 38.11963 | -11.26558 | 35153 ft | 386 kts | 225° |
| 2026-05-04 13:20 | 38.07714 | -11.30723 | 35147 ft | 386 kts | 225° |
| 2026-05-04 13:20 | 38.03470 | -11.34880 | 35140 ft | 385 kts | 225° |
| 2026-05-04 13:21 | 37.99230 | -11.39035 | 35144 ft | 385 kts | 225° |
| 2026-05-04 13:21 | 37.94991 | -11.43175 | 35144 ft | 385 kts | 225° |
| 2026-05-04 13:22 | 37.90745 | -11.47322 | 35149 ft | 385 kts | 225° |
| 2026-05-04 13:22 | 37.86499 | -11.51453 | 35151 ft | 385 kts | 225° |
| 2026-05-04 13:23 | 37.82250 | -11.55577 | 35154 ft | 385 kts | 225° |
| 2026-05-04 13:23 | 37.78002 | -11.59693 | 35155 ft | 385 kts | 225° |
| 2026-05-04 13:24 | 37.73754 | -11.63814 | 35159 ft | 385 kts | 225° |
| 2026-05-04 13:24 | 37.69504 | -11.67925 | 35160 ft | 385 kts | 225° |
| 2026-05-04 13:25 | 37.63157 | -11.74061 | 35162 ft | 385 kts | 225° |
| 2026-05-04 13:25 | 37.58905 | -11.78164 | 35141 ft | 385 kts | 224° |
| 2026-05-04 13:26 | 37.54652 | -11.82258 | 35154 ft | 384 kts | 224° |
| 2026-05-04 13:26 | 37.50399 | -11.86333 | 35161 ft | 384 kts | 224° |
| 2026-05-04 13:27 | 37.46157 | -11.90410 | 35156 ft | 383 kts | 224° |
| 2026-05-04 13:27 | 37.41919 | -11.94490 | 35166 ft | 383 kts | 224° |
| 2026-05-04 13:28 | 37.37679 | -11.98553 | 35164 ft | 383 kts | 224° |
| 2026-05-04 13:28 | 37.33430 | -12.02604 | 35135 ft | 383 kts | 224° |
| 2026-05-04 13:29 | 37.29189 | -12.06647 | 35153 ft | 382 kts | 224° |
| 2026-05-04 13:29 | 37.24954 | -12.10689 | 35163 ft | 382 kts | 224° |
| 2026-05-04 13:30 | 37.20727 | -12.14722 | 35167 ft | 382 kts | 224° |
| 2026-05-04 13:30 | 37.16489 | -12.18736 | 35166 ft | 382 kts | 224° |
| 2026-05-04 13:31 | 37.12254 | -12.22752 | 35173 ft | 381 kts | 224° |
| 2026-05-04 13:31 | 37.08025 | -12.26760 | 35174 ft | 381 kts | 224° |
| 2026-05-04 13:32 | 37.03817 | -12.30735 | 35155 ft | 381 kts | 223° |
| 2026-05-04 13:32 | 36.99582 | -12.34732 | 35169 ft | 381 kts | 223° |
| 2026-05-04 13:33 | 36.95356 | -12.38728 | 35168 ft | 380 kts | 223° |
| 2026-05-04 13:33 | 36.91139 | -12.42721 | 35160 ft | 380 kts | 223° |
| 2026-05-04 13:34 | 36.86917 | -12.46695 | 35164 ft | 380 kts | 223° |
| 2026-05-04 13:34 | 36.82690 | -12.50660 | 35173 ft | 380 kts | 223° |
| 2026-05-04 13:35 | 36.76342 | -12.56595 | 35153 ft | 380 kts | 223° |
| 2026-05-04 13:36 | 36.72149 | -12.60527 | 35159 ft | 379 kts | 223° |
| 2026-05-04 13:36 | 36.67932 | -12.64474 | 35165 ft | 379 kts | 223° |
| 2026-05-04 13:37 | 36.63686 | -12.68446 | 35169 ft | 379 kts | 223° |
| 2026-05-04 13:37 | 36.59492 | -12.72362 | 35171 ft | 379 kts | 223° |
| 2026-05-04 13:38 | 36.55270 | -12.76287 | 35172 ft | 379 kts | 222° |
| 2026-05-04 13:38 | 36.51042 | -12.80199 | 35149 ft | 378 kts | 223° |
| 2026-05-04 13:39 | 36.46826 | -12.84113 | 35158 ft | 377 kts | 223° |
| 2026-05-04 13:39 | 36.42622 | -12.88016 | 35163 ft | 377 kts | 223° |
| 2026-05-04 13:40 | 36.38416 | -12.91911 | 35165 ft | 377 kts | 223° |
| 2026-05-04 13:40 | 36.34206 | -12.95801 | 35167 ft | 377 kts | 223° |
| 2026-05-04 13:41 | 36.30067 | -12.99774 | 35171 ft | 375 kts | 225° |
| 2026-05-04 13:41 | 36.26133 | -13.03992 | 35154 ft | 373 kts | 228° |
| 2026-05-04 13:42 | 36.20321 | -13.10301 | 35195 ft | 371 kts | 227° |
| 2026-05-04 13:42 | 36.16409 | -13.14454 | 35184 ft | 370 kts | 227° |
| 2026-05-04 13:43 | 36.12487 | -13.18580 | 35193 ft | 369 kts | 227° |
| 2026-05-04 13:43 | 36.08580 | -13.22693 | 35194 ft | 368 kts | 227° |
| 2026-05-04 13:44 | 36.04680 | -13.26792 | 35196 ft | 368 kts | 227° |
| 2026-05-04 13:44 | 36.00786 | -13.30889 | 35196 ft | 368 kts | 227° |
| 2026-05-04 13:45 | 35.96897 | -13.34975 | 35174 ft | 367 kts | 227° |
| 2026-05-04 13:45 | 35.93028 | -13.39022 | 35178 ft | 366 kts | 227° |
| 2026-05-04 13:46 | 35.89147 | -13.43086 | 35178 ft | 366 kts | 227° |
| 2026-05-04 13:46 | 35.85267 | -13.47147 | 35184 ft | 366 kts | 227° |
| 2026-05-04 13:47 | 35.81391 | -13.51201 | 35165 ft | 366 kts | 227° |
| 2026-05-04 13:47 | 35.78163 | -13.54568 | 35168 ft | 366 kts | 227° |
| 2026-05-04 13:48 | 35.74276 | -13.58618 | 35172 ft | 366 kts | 226° |
| 2026-05-04 13:48 | 35.70383 | -13.62659 | 35157 ft | 366 kts | 226° |
| 2026-05-04 13:49 | 35.66497 | -13.66686 | 35163 ft | 365 kts | 226° |
| 2026-05-04 13:49 | 35.62617 | -13.70713 | 35165 ft | 365 kts | 226° |
| 2026-05-04 13:50 | 35.58728 | -13.74739 | 35171 ft | 365 kts | 226° |
| 2026-05-04 13:50 | 35.54842 | -13.78756 | 35173 ft | 365 kts | 226° |
| 2026-05-04 13:51 | 35.50961 | -13.82780 | 35175 ft | 365 kts | 226° |
| 2026-05-04 13:51 | 35.47078 | -13.86796 | 35165 ft | 365 kts | 226° |
| 2026-05-04 13:52 | 35.41235 | -13.92822 | 35151 ft | 366 kts | 226° |
| 2026-05-04 13:53 | 35.37339 | -13.96837 | 35154 ft | 366 kts | 226° |
| 2026-05-04 13:53 | 35.33459 | -14.00814 | 35159 ft | 366 kts | 226° |
| 2026-05-04 13:54 | 35.27599 | -14.06816 | 35162 ft | 366 kts | 226° |
| 2026-05-04 13:55 | 35.21731 | -14.12818 | 35169 ft | 366 kts | 226° |
| 2026-05-04 13:55 | 35.15867 | -14.18810 | 35177 ft | 366 kts | 226° |
| 2026-05-04 13:56 | 35.11952 | -14.22802 | 35177 ft | 366 kts | 226° |
| 2026-05-04 13:57 | 35.06114 | -14.28751 | 35170 ft | 366 kts | 225° |
| 2026-05-04 13:58 | 34.98283 | -14.36696 | 35162 ft | 366 kts | 226° |
| 2026-05-04 13:58 | 34.92417 | -14.42664 | 35175 ft | 366 kts | 226° |
| 2026-05-04 13:59 | 34.88502 | -14.46640 | 35177 ft | 366 kts | 225° |
| 2026-05-04 14:00 | 34.82608 | -14.52565 | 35165 ft | 366 kts | 225° |
| 2026-05-04 14:00 | 34.76729 | -14.58491 | 35163 ft | 366 kts | 225° |
| 2026-05-04 14:01 | 34.72811 | -14.62439 | 35167 ft | 366 kts | 225° |
| 2026-05-04 14:02 | 34.66958 | -14.68325 | 35168 ft | 365 kts | 225° |
| 2026-05-04 14:02 | 34.63045 | -14.72262 | 35164 ft | 365 kts | 225° |
| 2026-05-04 14:03 | 34.59134 | -14.76191 | 35139 ft | 365 kts | 224° |
| 2026-05-04 14:03 | 34.55211 | -14.80110 | 35147 ft | 365 kts | 224° |
| 2026-05-04 14:04 | 34.49327 | -14.85987 | 35148 ft | 365 kts | 224° |
| 2026-05-04 14:04 | 34.45423 | -14.89885 | 35150 ft | 365 kts | 224° |
| 2026-05-04 14:05 | 34.39533 | -14.95754 | 35164 ft | 365 kts | 224° |
| 2026-05-04 14:06 | 34.35616 | -14.99662 | 35166 ft | 365 kts | 224° |
| 2026-05-04 14:06 | 34.31691 | -15.03558 | 35166 ft | 365 kts | 224° |
| 2026-05-04 14:07 | 34.27766 | -15.07441 | 35163 ft | 364 kts | 223° |
| 2026-05-04 14:07 | 34.23848 | -15.11328 | 35163 ft | 364 kts | 223° |
| 2026-05-04 14:08 | 34.19932 | -15.15212 | 35161 ft | 364 kts | 223° |
| 2026-05-04 14:08 | 34.16019 | -15.19092 | 35158 ft | 364 kts | 223° |
| 2026-05-04 14:09 | 34.10159 | -15.24878 | 35157 ft | 365 kts | 223° |
| 2026-05-04 14:10 | 34.04190 | -15.30755 | 34123 ft | 376 kts | 223° |
| 2026-05-04 14:10 | 34.02124 | -15.32799 | 32967 ft | 390 kts | 223° |
| 2026-05-04 14:10 | 34.00050 | -15.34843 | 32737 ft | 380 kts | 223° |
| 2026-05-04 14:10 | 33.98012 | -15.36838 | 32337 ft | 375 kts | 223° |
| 2026-05-04 14:11 | 33.95993 | -15.38814 | 31882 ft | 372 kts | 223° |
| 2026-05-04 14:11 | 33.92017 | -15.42709 | 31027 ft | 365 kts | 223° |
| 2026-05-04 14:11 | 33.90054 | -15.44633 | 30609 ft | 362 kts | 223° |
| 2026-05-04 14:12 | 33.88113 | -15.46536 | 30192 ft | 359 kts | 223° |
| 2026-05-04 14:12 | 33.86189 | -15.48422 | 29756 ft | 355 kts | 223° |
| 2026-05-04 14:12 | 33.82439 | -15.52088 | 28991 ft | 345 kts | 223° |
| 2026-05-04 14:13 | 33.80588 | -15.53894 | 28610 ft | 340 kts | 223° |
| 2026-05-04 14:13 | 33.78762 | -15.55679 | 28239 ft | 336 kts | 223° |
| 2026-05-04 14:13 | 33.76962 | -15.57438 | 27869 ft | 332 kts | 223° |
| 2026-05-04 14:13 | 33.75181 | -15.59181 | 27505 ft | 328 kts | 223° |
| 2026-05-04 14:14 | 33.73418 | -15.60905 | 27141 ft | 326 kts | 223° |
| 2026-05-04 14:14 | 33.69904 | -15.64335 | 26388 ft | 324 kts | 222° |
| 2026-05-04 14:14 | 33.68156 | -15.66035 | 26003 ft | 323 kts | 222° |
| 2026-05-04 14:15 | 33.64692 | -15.69468 | 24966 ft | 328 kts | 225° |
| 2026-05-04 14:15 | 33.61258 | -15.73355 | 23416 ft | 347 kts | 227° |
| 2026-05-04 14:16 | 33.57828 | -15.77379 | 22531 ft | 342 kts | 226° |
| 2026-05-04 14:16 | 33.56123 | -15.79359 | 22114 ft | 340 kts | 226° |
| 2026-05-04 14:17 | 33.52736 | -15.83244 | 21279 ft | 335 kts | 226° |
| 2026-05-04 14:17 | 33.51055 | -15.85159 | 20872 ft | 333 kts | 226° |
| 2026-05-04 14:17 | 33.47713 | -15.88948 | 20069 ft | 329 kts | 226° |
| 2026-05-04 14:18 | 33.46055 | -15.90830 | 19670 ft | 328 kts | 226° |
| 2026-05-04 14:18 | 33.42779 | -15.94555 | 18855 ft | 326 kts | 226° |
| 2026-05-04 14:19 | 33.39482 | -15.98298 | 18025 ft | 326 kts | 225° |
| 2026-05-04 14:19 | 33.37837 | -16.00163 | 17581 ft | 327 kts | 225° |
| 2026-05-04 14:19 | 33.36187 | -16.02033 | 17137 ft | 327 kts | 225° |
| 2026-05-04 14:19 | 33.34537 | -16.03898 | 16704 ft | 326 kts | 225° |
| 2026-05-04 14:20 | 33.32890 | -16.05760 | 16277 ft | 326 kts | 225° |
| 2026-05-04 14:20 | 33.31244 | -16.07623 | 15924 ft | 324 kts | 225° |
| 2026-05-04 14:20 | 33.29624 | -16.09456 | 15623 ft | 320 kts | 225° |
| 2026-05-04 14:21 | 33.26402 | -16.13109 | 14889 ft | 319 kts | 225° |
| 2026-05-04 14:21 | 33.24786 | -16.14936 | 14513 ft | 319 kts | 225° |
| 2026-05-04 14:21 | 33.23173 | -16.16757 | 14138 ft | 319 kts | 225° |
| 2026-05-04 14:21 | 33.21563 | -16.18571 | 13840 ft | 316 kts | 225° |
| 2026-05-04 14:22 | 33.20001 | -16.20333 | 13472 ft | 304 kts | 225° |
| 2026-05-04 14:22 | 33.18480 | -16.22048 | 12935 ft | 298 kts | 225° |
| 2026-05-04 14:22 | 33.16982 | -16.23737 | 12355 ft | 295 kts | 224° |
| 2026-05-04 14:22 | 33.15498 | -16.25411 | 11776 ft | 292 kts | 224° |
| 2026-05-04 14:23 | 33.12576 | -16.28704 | 10619 ft | 286 kts | 225° |
| 2026-05-04 14:23 | 33.11135 | -16.30325 | 10064 ft | 284 kts | 224° |
| 2026-05-04 14:23 | 33.09701 | -16.31938 | 9750 ft | 283 kts | 225° |
| 2026-05-04 14:24 | 33.08269 | -16.33550 | 9620 ft | 283 kts | 224° |
| 2026-05-04 14:24 | 33.06843 | -16.35153 | 9489 ft | 282 kts | 224° |
| 2026-05-04 14:24 | 33.05414 | -16.36762 | 9354 ft | 283 kts | 224° |
| 2026-05-04 14:24 | 33.03985 | -16.38366 | 9207 ft | 282 kts | 224° |
| 2026-05-04 14:25 | 33.02567 | -16.39955 | 9086 ft | 277 kts | 224° |
| 2026-05-04 14:25 | 32.99866 | -16.42979 | 8819 ft | 256 kts | 224° |
| 2026-05-04 14:25 | 32.98591 | -16.44405 | 8699 ft | 246 kts | 224° |
| 2026-05-04 14:26 | 32.97368 | -16.45770 | 8571 ft | 237 kts | 224° |
| 2026-05-04 14:26 | 32.96186 | -16.47091 | 8442 ft | 229 kts | 224° |
| 2026-05-04 14:26 | 32.95044 | -16.48371 | 8290 ft | 223 kts | 224° |
| 2026-05-04 14:26 | 32.93924 | -16.49626 | 7954 ft | 220 kts | 224° |
| 2026-05-04 14:27 | 32.92813 | -16.50871 | 7543 ft | 220 kts | 224° |
| 2026-05-04 14:27 | 32.91674 | -16.52147 | 6963 ft | 229 kts | 223° |
| 2026-05-04 14:27 | 32.90511 | -16.53447 | 6391 ft | 235 kts | 223° |
| 2026-05-04 14:27 | 32.89314 | -16.54782 | 5910 ft | 235 kts | 223° |
| 2026-05-04 14:28 | 32.88134 | -16.56096 | 5531 ft | 230 kts | 223° |
| 2026-05-04 14:28 | 32.86980 | -16.57380 | 5186 ft | 225 kts | 223° |
| 2026-05-04 14:28 | 32.85850 | -16.58640 | 4837 ft | 220 kts | 223° |
| 2026-05-04 14:28 | 32.84753 | -16.59879 | 4483 ft | 216 kts | 223° |
| 2026-05-04 14:29 | 32.82656 | -16.62345 | 3816 ft | 208 kts | 224° |
| 2026-05-04 14:29 | 32.80630 | -16.64732 | 3152 ft | 202 kts | 224° |
| 2026-05-04 14:30 | 32.79638 | -16.65898 | 2825 ft | 198 kts | 224° |
| 2026-05-04 14:30 | 32.78671 | -16.67034 | 2521 ft | 190 kts | 223° |
| 2026-05-04 14:30 | 32.76934 | -16.69082 | 1929 ft | 165 kts | 223° |
| 2026-05-04 14:31 | 32.76151 | -16.70005 | 1726 ft | 154 kts | 223° |
| 2026-05-04 14:31 | 32.74727 | -16.71677 | 1345 ft | 133 kts | 225° |
| 2026-05-04 14:32 | 32.73455 | -16.73187 | 1045 ft | 128 kts | 222° |
| 2026-05-04 14:32 | 32.72812 | -16.73930 | 804 ft | 128 kts | 223° |
| 2026-05-04 14:32 | 32.72177 | -16.74668 | 644 ft | 127 kts | 220° |
| 2026-05-04 14:32 | 32.71537 | -16.75396 | 478 ft | 127 kts | 223° |
| 2026-05-04 14:33 | 32.70905 | -16.76139 | 284 ft | 128 kts | 221° |
| 2026-05-04 14:33 | 32.70277 | -16.76873 | 183 ft | 118 kts | 221° |
| 2026-05-04 14:33 | 32.69685 | -16.77525 | 192 ft | 132 kts | 230° |